createdAt,value
2023-03-02T00:00:44.368Z,100455.09
2023-03-02T00:01:42.323Z,100446.03
2023-03-02T00:02:29.592Z,100452.66
2023-03-02T00:03:19.241Z,100452.28
2023-03-02T00:04:09.139Z,100452.28
2023-03-02T00:04:58.966Z,100450.09
2023-03-02T00:05:47.417Z,100451.03
2023-03-02T00:06:35.143Z,100448.84
2023-03-02T00:07:30.534Z,100457.84
2023-03-02T00:08:18.638Z,100448.47
2023-03-02T00:09:06.438Z,100446.97
2023-03-02T00:09:53.906Z,100452.69
2023-03-02T00:10:40.798Z,100452.69
2023-03-02T00:11:29.526Z,100444.75
2023-03-02T00:12:18.586Z,100448.56
2023-03-02T00:13:05.595Z,100444.59
2023-03-02T00:13:52.475Z,100440.91
2023-03-02T00:14:39.374Z,100447.59
2023-03-02T00:15:26.929Z,100444.97
2023-03-02T00:16:13.862Z,100443.34
2023-03-02T00:17:00.957Z,100438.66
2023-03-02T00:17:47.806Z,100438.66
2023-03-02T00:18:34.657Z,100433.81
2023-03-02T00:19:21.806Z,100438.53
2023-03-02T00:20:12.265Z,100434.19
2023-03-02T00:20:59.148Z,100435.03
2023-03-02T00:21:46.015Z,100424.34
2023-03-02T00:22:32.956Z,100430.78
2023-03-02T00:23:19.836Z,100427.47
2023-03-02T00:24:07.186Z,100424.63
2023-03-02T00:24:54.050Z,100430.19
2023-03-02T00:25:41.061Z,100421.56
2023-03-02T00:26:27.982Z,100429.69
2023-03-02T00:27:14.916Z,100429.03
2023-03-02T00:28:01.848Z,100425.38
2023-03-02T00:28:48.876Z,100420.94
2023-03-02T00:29:35.735Z,100415.53
2023-03-02T00:30:22.824Z,100417.81
2023-03-02T00:31:09.959Z,100417.25
2023-03-02T00:31:56.954Z,100411.41
2023-03-02T00:32:44.596Z,100418.47
2023-03-02T00:33:32.521Z,100413.28
2023-03-02T00:34:19.547Z,100417.22
2023-03-02T00:35:07.113Z,100416.84
2023-03-02T00:35:54.101Z,100423.22
2023-03-02T00:36:41.328Z,100422.34
2023-03-02T00:37:28.374Z,100415.09
2023-03-02T00:38:15.434Z,100420.56
2023-03-02T00:39:02.417Z,100415.03
2023-03-02T00:39:52.107Z,100414.19
2023-03-02T00:40:44.594Z,100417.56
2023-03-02T00:41:31.556Z,100414.53
2023-03-02T00:42:18.492Z,100411.81
2023-03-02T00:43:05.405Z,100411.62
2023-03-02T00:43:52.306Z,100406.63
2023-03-02T00:44:39.262Z,100413.53
2023-03-02T00:45:26.504Z,100411.09
2023-03-02T00:46:15.425Z,100404.41
2023-03-02T00:47:02.461Z,100403.53
2023-03-02T00:47:49.373Z,100402.69
2023-03-02T00:48:36.274Z,100407.97
2023-03-02T00:49:23.172Z,100403.44
2023-03-02T00:50:10.753Z,100410.44
2023-03-02T00:51:01.032Z,100396.06
2023-03-02T00:51:47.931Z,100402.97
2023-03-02T00:52:34.911Z,100397.69
2023-03-02T00:53:21.793Z,100400.13
2023-03-02T00:54:08.774Z,100395.88
2023-03-02T00:54:55.660Z,100403.34
2023-03-02T00:55:42.553Z,100397.59
2023-03-02T00:56:30.209Z,100396.91
2023-03-02T00:57:17.414Z,100401.16
2023-03-02T00:58:05.382Z,100394.44
2023-03-02T00:58:52.309Z,100395.19
2023-03-02T00:59:39.664Z,100393.03
2023-03-02T01:00:29.379Z,100396.63
2023-03-02T01:01:18.586Z,100394.91
2023-03-02T01:02:06.272Z,100388.41
2023-03-02T01:02:53.433Z,100391.97
2023-03-02T01:03:40.706Z,100377.22
2023-03-02T01:04:31.183Z,100381.50
2023-03-02T01:05:18.502Z,100379.31
2023-03-02T01:06:06.474Z,100376.84
2023-03-02T01:06:53.391Z,100375.16
2023-03-02T01:07:40.286Z,100374.12
2023-03-02T01:08:27.524Z,100376.19
2023-03-02T01:09:14.601Z,100365.50
2023-03-02T01:10:01.568Z,100370.59
2023-03-02T01:10:48.636Z,100363.41
2023-03-02T01:11:35.588Z,100366.56
2023-03-02T01:12:23.282Z,100360.22
2023-03-02T01:13:10.222Z,100363.50
2023-03-02T01:13:57.118Z,100363.63
2023-03-02T01:14:46.361Z,100364.09
2023-03-02T01:15:34.155Z,100362.09
2023-03-02T01:16:21.161Z,100370.41
2023-03-02T01:17:09.688Z,100360.53
2023-03-02T01:17:56.570Z,100360.47
2023-03-02T01:18:43.497Z,100363.88
2023-03-02T01:19:30.707Z,100358.97
2023-03-02T01:20:18.348Z,100364.56
2023-03-02T01:21:08.029Z,100357.44
2023-03-02T01:21:54.970Z,100362.37
2023-03-02T01:22:43.611Z,100354.06
2023-03-02T01:23:30.510Z,100356.34
2023-03-02T01:24:17.501Z,100354.53
2023-03-02T01:25:05.417Z,100352.94
2023-03-02T01:25:52.452Z,100349.50
2023-03-02T01:26:39.342Z,100350.09
2023-03-02T01:27:26.257Z,100345.66
2023-03-02T01:28:13.247Z,100341.19
2023-03-02T01:29:00.133Z,100344.34
2023-03-02T01:29:47.078Z,100342.63
2023-03-02T01:30:34.010Z,100350.16
2023-03-02T01:31:21.868Z,100341.19
2023-03-02T01:32:09.422Z,100344.34
2023-03-02T01:32:56.360Z,100341.19
2023-03-02T01:33:43.271Z,100335.63
2023-03-02T01:34:30.239Z,100336.22
2023-03-02T01:35:17.369Z,100334.19
2023-03-02T01:36:04.502Z,100329.31
2023-03-02T01:36:51.407Z,100333.34
2023-03-02T01:37:38.311Z,100333.44
2023-03-02T01:38:25.398Z,100332.44
2023-03-02T01:39:16.248Z,100329.00
2023-03-02T01:40:06.657Z,100337.69
2023-03-02T01:40:53.640Z,100337.03
2023-03-02T01:41:40.489Z,100332.13
2023-03-02T01:42:27.410Z,100323.50
2023-03-02T01:43:15.540Z,100327.38
2023-03-02T01:44:02.471Z,100324.44
2023-03-02T01:44:51.724Z,100335.41
2023-03-02T01:45:44.191Z,100326.34
2023-03-02T01:46:35.393Z,100333.81
2023-03-02T01:47:33.055Z,100333.00
2023-03-02T01:48:35.730Z,100328.72
2023-03-02T01:49:22.660Z,100332.97
2023-03-02T01:50:24.420Z,100329.56
2023-03-02T01:51:16.482Z,100332.22
2023-03-02T01:52:03.621Z,100333.91
2023-03-02T01:52:51.520Z,100337.78
2023-03-02T01:53:38.462Z,100329.47
2023-03-02T01:54:25.654Z,100334.03
2023-03-02T01:55:15.632Z,100331.00
2023-03-02T01:56:03.552Z,100335.16
2023-03-02T01:56:53.360Z,100335.25
2023-03-02T01:57:45.199Z,100336.84
2023-03-02T01:58:35.682Z,100332.97
2023-03-02T01:59:23.490Z,100339.03
2023-03-02T02:00:17.199Z,100331.06
2023-03-02T02:01:05.052Z,100335.53
2023-03-02T02:01:54.534Z,100337.16
2023-03-02T02:02:42.419Z,100336.09
2023-03-02T02:03:31.371Z,100335.75
2023-03-02T02:04:18.619Z,100337.25
2023-03-02T02:05:05.649Z,100340.34
2023-03-02T02:06:01.010Z,100341.59
2023-03-02T02:06:51.762Z,100332.41
2023-03-02T02:07:39.242Z,100344.78
2023-03-02T02:08:26.508Z,100335.44
2023-03-02T02:09:15.892Z,100336.81
2023-03-02T02:10:03.550Z,100331.84
2023-03-02T02:10:50.551Z,100340.06
2023-03-02T02:11:37.446Z,100335.78
2023-03-02T02:12:24.999Z,100331.75
2023-03-02T02:13:12.021Z,100337.88
2023-03-02T02:14:00.131Z,100338.16
2023-03-02T02:14:48.083Z,100341.00
2023-03-02T02:15:35.086Z,100337.97
2023-03-02T02:16:22.167Z,100334.28
2023-03-02T02:17:09.680Z,100340.31
2023-03-02T02:17:56.622Z,100341.09
2023-03-02T02:18:44.690Z,100343.75
2023-03-02T02:19:36.181Z,100346.31
2023-03-02T02:20:31.340Z,100347.97
2023-03-02T02:21:19.448Z,100345.94
2023-03-02T02:22:06.449Z,100341.00
2023-03-02T02:23:27.632Z,100349.37
2023-03-02T02:24:20.708Z,100351.16
2023-03-02T02:25:16.989Z,100355.28
2023-03-02T02:26:46.189Z,100345.19
2023-03-02T02:27:34.338Z,100345.31
2023-03-02T02:28:24.868Z,100357.06
2023-03-02T02:29:19.168Z,100354.09
2023-03-02T02:30:07.162Z,100355.63
2023-03-02T02:31:18.663Z,100349.97
2023-03-02T02:32:19.067Z,100347.84
2023-03-02T02:33:06.474Z,100347.84
2023-03-02T02:33:57.137Z,100346.72
2023-03-02T02:34:48.558Z,100344.78
2023-03-02T02:35:38.795Z,100344.50
2023-03-02T02:36:34.107Z,100345.19
2023-03-02T02:37:25.468Z,100329.47
2023-03-02T02:38:13.782Z,100346.94
2023-03-02T02:39:04.242Z,100331.19
2023-03-02T02:39:51.888Z,100330.84
2023-03-02T02:40:50.550Z,100331.78
2023-03-02T02:41:39.623Z,100329.88
2023-03-02T02:42:36.303Z,100331.25
2023-03-02T02:43:23.824Z,100326.78
2023-03-02T02:44:14.705Z,100323.94
2023-03-02T02:45:05.289Z,100323.94
2023-03-02T02:45:52.687Z,100325.59
2023-03-02T02:46:39.689Z,100325.19
2023-03-02T02:47:26.646Z,100329.00
2023-03-02T02:48:19.949Z,100334.25
2023-03-02T02:49:18.827Z,100331.00
2023-03-02T02:50:06.330Z,100340.56
2023-03-02T02:51:00.498Z,100336.13
2023-03-02T02:51:47.618Z,100336.13
2023-03-02T02:52:34.814Z,100331.00
2023-03-02T02:53:28.329Z,100331.16
2023-03-02T02:54:18.001Z,100324.47
2023-03-02T02:55:05.639Z,100321.75
2023-03-02T02:55:54.068Z,100326.34
2023-03-02T02:56:41.588Z,100327.59
2023-03-02T02:57:29.488Z,100322.16
2023-03-02T02:58:46.009Z,100325.56
2023-03-02T02:59:44.536Z,100326.19
2023-03-02T03:00:31.619Z,100321.19
2023-03-02T03:01:20.906Z,100321.38
2023-03-02T03:02:15.800Z,100321.53
2023-03-02T03:03:07.053Z,100325.88
2023-03-02T03:03:57.353Z,100328.50
2023-03-02T03:04:44.417Z,100333.66
2023-03-02T03:05:31.468Z,100326.91
2023-03-02T03:06:21.332Z,100334.06
2023-03-02T03:07:10.980Z,100336.31
2023-03-02T03:08:10.972Z,100335.94
2023-03-02T03:09:00.669Z,100334.00
2023-03-02T03:09:56.107Z,100336.03
2023-03-02T03:10:43.817Z,100323.91
2023-03-02T03:11:33.326Z,100323.97
2023-03-02T03:12:23.599Z,100328.78
2023-03-02T03:13:11.692Z,100326.75
2023-03-02T03:14:15.938Z,100326.81
2023-03-02T03:15:03.557Z,100326.94
2023-03-02T03:15:50.537Z,100327.38
2023-03-02T03:16:38.972Z,100325.81
2023-03-02T03:17:25.971Z,100326.56
2023-03-02T03:18:13.566Z,100326.75
2023-03-02T03:19:10.127Z,100321.53
2023-03-02T03:20:06.342Z,100318.13
2023-03-02T03:20:53.307Z,100325.78
2023-03-02T03:21:40.316Z,100324.66
2023-03-02T03:22:27.253Z,100325.94
2023-03-02T03:23:14.184Z,100333.75
2023-03-02T03:24:01.185Z,100337.66
2023-03-02T03:24:48.305Z,100338.09
2023-03-02T03:25:35.243Z,100342.53
2023-03-02T03:26:22.163Z,100342.56
2023-03-02T03:27:10.976Z,100342.06
2023-03-02T03:27:57.813Z,100344.34
2023-03-02T03:28:44.752Z,100344.16
2023-03-02T03:29:33.126Z,100341.16
2023-03-02T03:30:20.142Z,100343.47
2023-03-02T03:31:07.386Z,100343.50
2023-03-02T03:31:56.334Z,100345.19
2023-03-02T03:32:43.579Z,100339.06
2023-03-02T03:33:30.513Z,100337.53
2023-03-02T03:34:17.612Z,100342.34
2023-03-02T03:35:08.831Z,100347.00
2023-03-02T03:35:55.846Z,100338.44
2023-03-02T03:36:43.705Z,100345.75
2023-03-02T03:37:30.565Z,100343.88
2023-03-02T03:38:18.139Z,100346.47
2023-03-02T03:39:06.003Z,100350.97
2023-03-02T03:39:52.995Z,100349.44
2023-03-02T03:42:40.472Z,100345.69
2023-03-02T03:46:04.934Z,100347.41
2023-03-02T03:46:52.762Z,100347.19
2023-03-02T03:47:39.818Z,100342.66
2023-03-02T03:48:27.270Z,100340.88
2023-03-02T03:51:10.709Z,100342.59
2023-03-02T03:51:57.877Z,100337.91
2023-03-02T03:52:45.008Z,100335.00
2023-03-02T03:53:32.239Z,100337.62
2023-03-02T03:54:19.319Z,100336.19
2023-03-02T03:55:06.851Z,100340.38
2023-03-02T03:55:54.566Z,100337.72
2023-03-02T03:56:47.562Z,100329.94
2023-03-02T03:57:34.659Z,100325.97
2023-03-02T03:58:21.848Z,100328.91
2023-03-02T03:59:16.892Z,100336.34
2023-03-02T04:00:08.218Z,100331.84
2023-03-02T04:00:55.304Z,100330.72
2023-03-02T04:01:55.005Z,100331.47
2023-03-02T04:02:42.516Z,100328.41
2023-03-02T04:03:29.697Z,100329.84
2023-03-02T04:04:46.199Z,100326.28
2023-03-02T04:05:33.359Z,100326.84
2023-03-02T04:06:20.245Z,100326.28
2023-03-02T04:07:07.248Z,100324.50
2023-03-02T04:07:54.468Z,100324.41
2023-03-02T04:08:41.505Z,100332.84
2023-03-02T04:09:29.516Z,100332.47
2023-03-02T04:10:16.694Z,100331.09
2023-03-02T04:11:03.736Z,100336.56
2023-03-02T04:11:53.268Z,100339.97
2023-03-02T04:12:41.693Z,100333.66
2023-03-02T04:13:28.796Z,100336.03
2023-03-02T04:14:16.447Z,100339.56
2023-03-02T04:15:04.603Z,100337.75
2023-03-02T04:15:51.626Z,100341.50
2023-03-02T04:16:39.965Z,100343.13
2023-03-02T04:17:27.769Z,100349.44
2023-03-02T04:18:14.821Z,100342.41
2023-03-02T04:19:02.166Z,100352.47
2023-03-02T04:19:49.286Z,100345.37
2023-03-02T04:20:36.298Z,100345.91
2023-03-02T04:21:23.587Z,100349.13
2023-03-02T04:22:10.634Z,100344.00
2023-03-02T04:22:58.711Z,100341.94
2023-03-02T04:23:45.809Z,100341.78
2023-03-02T04:24:32.978Z,100337.25
2023-03-02T04:25:23.054Z,100343.47
2023-03-02T04:26:10.165Z,100349.97
2023-03-02T04:26:57.201Z,100343.66
2023-03-02T04:27:44.177Z,100345.31
2023-03-02T04:28:32.318Z,100345.37
2023-03-02T04:29:19.637Z,100336.91
2023-03-02T04:30:07.839Z,100336.75
2023-03-02T04:30:54.910Z,100335.31
2023-03-02T04:31:42.329Z,100340.09
2023-03-02T04:32:29.433Z,100334.94
2023-03-02T04:33:16.483Z,100334.00
2023-03-02T04:34:06.648Z,100332.37
2023-03-02T04:34:53.796Z,100333.28
2023-03-02T04:35:41.009Z,100330.06
2023-03-02T04:36:28.234Z,100326.66
2023-03-02T04:37:16.251Z,100330.81
2023-03-02T04:38:03.464Z,100330.44
2023-03-02T04:38:50.816Z,100325.50
2023-03-02T04:39:37.775Z,100329.69
2023-03-02T04:40:25.563Z,100322.50
2023-03-02T04:41:12.525Z,100322.25
2023-03-02T04:41:59.527Z,100324.66
2023-03-02T04:42:46.738Z,100314.59
2023-03-02T04:43:33.785Z,100322.03
2023-03-02T04:44:20.999Z,100323.22
2023-03-02T04:45:08.547Z,100321.59
2023-03-02T04:45:55.673Z,100323.47
2023-03-02T04:46:44.817Z,100322.88
2023-03-02T04:47:32.058Z,100325.88
2023-03-02T04:48:20.349Z,100319.16
2023-03-02T04:49:07.903Z,100320.59
2023-03-02T04:49:55.125Z,100327.78
2023-03-02T04:50:42.219Z,100326.06
2023-03-02T04:51:32.270Z,100329.06
2023-03-02T04:52:19.260Z,100324.53
2023-03-02T04:53:06.390Z,100326.38
2023-03-02T04:53:55.453Z,100331.66
2023-03-02T04:54:42.698Z,100326.16
2023-03-02T04:55:29.823Z,100330.25
2023-03-02T04:56:17.042Z,100327.16
2023-03-02T04:57:04.261Z,100326.22
2023-03-02T04:57:51.492Z,100324.50
2023-03-02T04:58:38.652Z,100327.91
2023-03-02T04:59:28.431Z,100334.16
2023-03-02T05:00:17.203Z,100333.06
2023-03-02T05:01:04.400Z,100330.06
2023-03-02T05:01:51.824Z,100330.91
2023-03-02T05:02:39.632Z,100333.13
2023-03-02T05:03:26.736Z,100333.22
2023-03-02T05:04:14.101Z,100330.06
2023-03-02T05:05:01.249Z,100330.16
2023-03-02T05:05:48.220Z,100332.72
2023-03-02T05:06:35.720Z,100329.19
2023-03-02T05:07:22.869Z,100327.50
2023-03-02T05:08:09.991Z,100323.41
2023-03-02T05:09:00.213Z,100328.06
2023-03-02T05:09:47.240Z,100325.44
2023-03-02T05:10:34.346Z,100322.88
2023-03-02T05:11:24.178Z,100325.09
2023-03-02T05:12:11.219Z,100325.94
2023-03-02T05:12:58.590Z,100329.34
2023-03-02T05:13:45.629Z,100324.94
2023-03-02T05:14:32.772Z,100330.56
2023-03-02T05:15:21.809Z,100333.62
2023-03-02T05:16:09.011Z,100336.19
2023-03-02T05:16:56.137Z,100328.59
2023-03-02T05:17:43.198Z,100338.06
2023-03-02T05:18:30.374Z,100331.00
2023-03-02T05:19:18.399Z,100333.91
2023-03-02T05:20:07.426Z,100335.50
2023-03-02T05:20:54.709Z,100335.69
2023-03-02T05:21:42.737Z,100334.59
2023-03-02T05:22:29.766Z,100329.31
2023-03-02T05:23:27.761Z,100333.72
2023-03-02T05:24:15.077Z,100340.09
2023-03-02T05:25:02.095Z,100331.94
2023-03-02T05:25:49.674Z,100335.34
2023-03-02T05:26:36.924Z,100334.22
2023-03-02T05:27:23.905Z,100335.25
2023-03-02T05:28:10.959Z,100337.56
2023-03-02T05:28:58.096Z,100332.03
2023-03-02T05:29:45.190Z,100336.19
2023-03-02T05:30:37.889Z,100336.78
2023-03-02T05:31:31.189Z,100338.16
2023-03-02T05:32:18.266Z,100339.19
2023-03-02T05:33:05.606Z,100341.06
2023-03-02T05:33:52.649Z,100348.22
2023-03-02T05:34:40.100Z,100339.84
2023-03-02T05:35:27.642Z,100340.47
2023-03-02T05:36:16.044Z,100341.22
2023-03-02T05:37:04.180Z,100341.75
2023-03-02T05:37:51.359Z,100339.59
2023-03-02T05:38:38.748Z,100348.22
2023-03-02T05:39:25.736Z,100343.50
2023-03-02T05:40:18.323Z,100348.28
2023-03-02T05:41:05.784Z,100343.16
2023-03-02T05:41:52.769Z,100344.19
2023-03-02T05:42:40.914Z,100349.28
2023-03-02T05:43:27.997Z,100356.72
2023-03-02T05:44:14.977Z,100349.28
2023-03-02T05:45:04.222Z,100354.34
2023-03-02T05:45:51.296Z,100352.56
2023-03-02T05:46:38.408Z,100349.13
2023-03-02T05:47:25.791Z,100355.59
2023-03-02T05:48:13.630Z,100349.63
2023-03-02T05:49:00.753Z,100358.16
2023-03-02T05:49:47.827Z,100354.31
2023-03-02T05:52:05.889Z,100354.31
2023-03-02T05:52:55.467Z,100359.53
2023-03-02T05:53:42.424Z,100353.19
2023-03-02T05:54:29.330Z,100362.94
2023-03-02T05:55:17.328Z,100361.03
2023-03-02T05:56:10.514Z,100355.66
2023-03-02T05:56:57.507Z,100356.06
2023-03-02T05:57:49.534Z,100359.66
2023-03-02T05:58:42.940Z,100359.59
2023-03-02T05:59:31.467Z,100356.41
2023-03-02T06:00:19.730Z,100351.69
2023-03-02T06:01:17.530Z,100357.72
2023-03-02T06:02:13.208Z,100357.16
2023-03-02T06:03:00.232Z,100357.94
2023-03-02T06:03:47.147Z,100362.09
2023-03-02T06:04:33.996Z,100362.03
2023-03-02T06:05:22.826Z,100361.91
2023-03-02T06:06:14.442Z,100357.94
2023-03-02T06:07:01.464Z,100359.88
2023-03-02T06:07:48.625Z,100362.81
2023-03-02T06:08:41.195Z,100366.28
2023-03-02T06:09:28.092Z,100367.31
2023-03-02T06:10:15.293Z,100367.81
2023-03-02T06:11:02.746Z,100357.28
2023-03-02T06:11:49.629Z,100360.62
2023-03-02T06:12:36.663Z,100368.03
2023-03-02T06:13:29.413Z,100365.72
2023-03-02T06:14:19.404Z,100364.69
2023-03-02T06:15:11.043Z,100360.16
2023-03-02T06:16:06.990Z,100366.44
2023-03-02T06:16:53.942Z,100353.41
2023-03-02T06:17:40.834Z,100356.94
2023-03-02T06:18:27.682Z,100359.03
2023-03-02T06:19:14.598Z,100354.28
2023-03-02T06:20:01.643Z,100354.06
2023-03-02T06:20:50.060Z,100358.31
2023-03-02T06:21:37.084Z,100364.91
2023-03-02T06:22:24.105Z,100357.66
2023-03-02T06:23:12.278Z,100358.97
2023-03-02T06:23:59.432Z,100360.31
2023-03-02T06:24:46.438Z,100359.16
2023-03-02T06:25:33.434Z,100360.78
2023-03-02T06:26:20.515Z,100358.50
2023-03-02T06:27:07.521Z,100358.41
2023-03-02T06:27:54.514Z,100355.19
2023-03-02T06:28:56.556Z,100363.91
2023-03-02T06:29:43.726Z,100362.47
2023-03-02T06:30:31.076Z,100363.06
2023-03-02T06:31:18.063Z,100366.47
2023-03-02T06:32:05.468Z,100366.75
2023-03-02T06:32:52.763Z,100366.06
2023-03-02T06:33:39.787Z,100364.09
2023-03-02T06:34:26.932Z,100364.38
2023-03-02T06:35:14.102Z,100361.63
2023-03-02T06:36:01.384Z,100357.66
2023-03-02T06:36:48.420Z,100362.84
2023-03-02T06:37:35.477Z,100368.25
2023-03-02T06:38:22.866Z,100363.41
2023-03-02T06:39:16.085Z,100366.81
2023-03-02T06:40:08.709Z,100367.88
2023-03-02T06:40:55.649Z,100369.19
2023-03-02T06:41:46.698Z,100367.81
2023-03-02T06:42:33.735Z,100362.66
2023-03-02T06:43:20.817Z,100373.88
2023-03-02T06:44:07.875Z,100367.34
2023-03-02T06:44:58.086Z,100366.97
2023-03-02T06:45:45.132Z,100369.09
2023-03-02T06:46:32.342Z,100374.12
2023-03-02T06:47:19.427Z,100367.78
2023-03-02T06:48:07.184Z,100366.50
2023-03-02T06:48:54.154Z,100366.03
2023-03-02T06:49:41.159Z,100364.03
2023-03-02T06:50:28.801Z,100371.59
2023-03-02T06:51:15.829Z,100367.78
2023-03-02T06:52:02.801Z,100366.63
2023-03-02T06:52:51.908Z,100372.87
2023-03-02T06:53:39.085Z,100376.94
2023-03-02T06:54:26.044Z,100369.75
2023-03-02T06:55:13.117Z,100373.91
2023-03-02T06:56:00.061Z,100370.38
2023-03-02T06:56:47.039Z,100372.19
2023-03-02T06:57:34.436Z,100377.06
2023-03-02T06:58:21.456Z,100376.56
2023-03-02T06:59:08.460Z,100380.69
2023-03-02T06:59:55.478Z,100372.75
2023-03-02T07:00:42.690Z,100380.50
2023-03-02T07:01:36.115Z,100382.84
2023-03-02T07:02:25.534Z,100377.53
2023-03-02T07:03:12.643Z,100376.28
2023-03-02T07:03:59.798Z,100376.91
2023-03-02T07:04:46.998Z,100374.81
2023-03-02T07:05:34.198Z,100375.44
2023-03-02T07:06:21.734Z,100376.31
2023-03-02T07:07:08.803Z,100378.09
2023-03-02T07:07:55.833Z,100375.25
2023-03-02T07:08:42.883Z,100376.09
2023-03-02T07:09:31.163Z,100375.69
2023-03-02T07:10:18.238Z,100375.16
2023-03-02T07:11:06.898Z,100377.28
2023-03-02T07:11:53.995Z,100374.75
2023-03-02T07:12:42.278Z,100379.59
2023-03-02T07:13:31.244Z,100378.25
2023-03-02T07:14:18.357Z,100372.59
2023-03-02T07:15:09.021Z,100377.81
2023-03-02T07:15:55.961Z,100379.09
2023-03-02T07:16:43.124Z,100379.31
2023-03-02T07:17:30.167Z,100374.19
2023-03-02T07:18:17.262Z,100370.47
2023-03-02T07:19:04.245Z,100381.62
2023-03-02T07:19:51.427Z,100381.09
2023-03-02T07:20:38.792Z,100379.59
2023-03-02T07:21:25.817Z,100376.72
2023-03-02T07:22:12.811Z,100377.22
2023-03-02T07:22:59.939Z,100376.91
2023-03-02T07:23:46.951Z,100372.31
2023-03-02T07:24:36.017Z,100374.38
2023-03-02T07:25:23.060Z,100379.06
2023-03-02T07:26:10.025Z,100377.78
2023-03-02T07:26:56.981Z,100376.81
2023-03-02T07:27:44.006Z,100374.47
2023-03-02T07:28:30.985Z,100370.94
2023-03-02T07:29:18.021Z,100372.94
2023-03-02T07:30:06.373Z,100371.22
2023-03-02T07:30:54.000Z,100366.06
2023-03-02T07:31:41.020Z,100369.25
2023-03-02T07:32:28.152Z,100370.69
2023-03-02T07:33:15.094Z,100370.16
2023-03-02T07:34:02.109Z,100366.06
2023-03-02T07:34:49.089Z,100365.50
2023-03-02T07:35:36.149Z,100366.72
2023-03-02T07:36:23.062Z,100365.44
2023-03-02T07:37:10.015Z,100365.91
2023-03-02T07:37:56.900Z,100371.88
2023-03-02T07:38:43.832Z,100368.03
2023-03-02T07:39:30.820Z,100363.44
2023-03-02T07:40:17.892Z,100378.22
2023-03-02T07:41:09.142Z,100365.91
2023-03-02T07:42:00.319Z,100361.78
2023-03-02T07:42:47.296Z,100360.34
2023-03-02T07:43:35.890Z,100367.03
2023-03-02T07:44:22.784Z,100364.88
2023-03-02T07:45:11.177Z,100367.91
2023-03-02T07:45:59.821Z,100364.53
2023-03-02T07:46:47.209Z,100364.06
2023-03-02T07:47:34.150Z,100354.47
2023-03-02T07:48:23.499Z,100354.97
2023-03-02T07:49:10.528Z,100362.25
2023-03-02T07:49:57.688Z,100356.28
2023-03-02T07:50:44.728Z,100355.06
2023-03-02T07:51:32.154Z,100351.81
2023-03-02T07:52:19.466Z,100357.72
2023-03-02T07:53:06.466Z,100358.84
2023-03-02T07:53:53.735Z,100362.69
2023-03-02T07:54:40.719Z,100356.03
2023-03-02T07:55:28.048Z,100358.91
2023-03-02T07:56:14.960Z,100357.28
2023-03-02T07:57:02.112Z,100361.28
2023-03-02T07:57:49.078Z,100359.94
2023-03-02T07:58:36.334Z,100360.19
2023-03-02T07:59:23.798Z,100352.75
2023-03-02T08:00:11.405Z,100352.00
2023-03-02T08:00:58.474Z,100361.06
2023-03-02T08:01:45.421Z,100360.69
2023-03-02T08:02:33.903Z,100352.16
2023-03-02T08:03:21.034Z,100354.31
2023-03-02T08:04:08.100Z,100362.66
2023-03-02T08:04:54.944Z,100362.97
2023-03-02T08:05:41.897Z,100358.94
2023-03-02T08:06:28.835Z,100359.28
2023-03-02T08:07:15.815Z,100358.87
2023-03-02T08:08:02.756Z,100363.81
2023-03-02T08:08:50.092Z,100357.97
2023-03-02T08:09:39.835Z,100360.09
2023-03-02T08:10:27.424Z,100356.91
2023-03-02T08:11:18.843Z,100365.09
2023-03-02T08:12:07.013Z,100358.38
2023-03-02T08:12:54.577Z,100358.84
2023-03-02T08:13:42.299Z,100359.94
2023-03-02T08:14:29.296Z,100363.78
2023-03-02T08:15:16.326Z,100366.75
2023-03-02T08:16:05.007Z,100364.53
2023-03-02T08:16:52.570Z,100363.28
2023-03-02T08:17:39.699Z,100360.06
2023-03-02T08:18:26.611Z,100366.72
2023-03-02T08:19:13.645Z,100368.97
2023-03-02T08:20:00.677Z,100360.53
2023-03-02T08:20:47.717Z,100362.66
2023-03-02T08:21:35.055Z,100361.25
2023-03-02T08:22:22.158Z,100357.59
2023-03-02T08:23:09.566Z,100357.31
2023-03-02T08:23:59.349Z,100355.34
2023-03-02T08:24:47.140Z,100358.75
2023-03-02T08:25:34.904Z,100366.50
2023-03-02T08:26:22.879Z,100359.63
2023-03-02T08:27:16.210Z,100353.84
2023-03-02T08:28:04.175Z,100350.88
2023-03-02T08:28:51.756Z,100346.22
2023-03-02T08:29:39.706Z,100350.19
2023-03-02T08:30:30.256Z,100341.87
2023-03-02T08:31:19.432Z,100349.47
2023-03-02T08:32:07.864Z,100338.06
2023-03-02T08:32:57.541Z,100339.63
2023-03-02T08:33:49.992Z,100345.69
2023-03-02T08:34:43.839Z,100337.94
2023-03-02T08:35:35.631Z,100339.19
2023-03-02T08:39:14.656Z,100340.19
2023-03-02T08:40:01.540Z,100329.34
2023-03-02T08:40:48.509Z,100330.75
2023-03-02T08:41:35.787Z,100320.44
2023-03-02T08:42:23.121Z,100329.91
2023-03-02T08:43:09.967Z,100325.50
2023-03-02T08:43:56.863Z,100318.03
2023-03-02T08:44:44.397Z,100324.94
2023-03-02T08:45:31.324Z,100323.09
2023-03-02T08:46:19.238Z,100321.53
2023-03-02T08:47:07.108Z,100317.28
2023-03-02T08:48:03.343Z,100323.22
2023-03-02T08:50:39.354Z,100322.59
2023-03-02T08:51:37.297Z,100322.34
2023-03-02T08:52:24.468Z,100313.59
2023-03-02T08:53:11.485Z,100316.53
2023-03-02T08:53:58.404Z,100317.78
2023-03-02T08:54:45.263Z,100320.41
2023-03-02T08:55:36.008Z,100320.41
2023-03-02T08:56:29.067Z,100319.44
2023-03-02T08:57:15.912Z,100319.84
2023-03-02T08:58:03.898Z,100316.56
2023-03-02T08:58:51.798Z,100321.47
2023-03-02T08:59:38.652Z,100319.03
2023-03-02T09:00:35.822Z,100320.75
2023-03-02T09:01:30.417Z,100314.38
2023-03-02T09:02:17.428Z,100321.13
2023-03-02T09:03:04.422Z,100315.50
2023-03-02T09:03:51.967Z,100313.75
2023-03-02T09:04:39.398Z,100316.00
2023-03-02T09:05:59.358Z,100313.31
2023-03-02T09:06:58.152Z,100315.41
2023-03-02T09:07:49.011Z,100309.44
2023-03-02T09:08:35.933Z,100308.56
2023-03-02T09:09:23.128Z,100308.56
2023-03-02T09:10:10.704Z,100302.91
2023-03-02T09:10:57.564Z,100305.84
2023-03-02T09:11:45.119Z,100304.81
2023-03-02T09:12:32.040Z,100310.19
2023-03-02T09:13:18.901Z,100310.59
2023-03-02T09:14:06.090Z,100312.75
2023-03-02T09:14:52.892Z,100305.69
2023-03-02T09:15:39.791Z,100302.09
2023-03-02T09:16:27.162Z,100303.62
2023-03-02T09:17:15.763Z,100308.16
2023-03-02T09:18:02.734Z,100303.00
2023-03-02T09:18:49.992Z,100309.62
2023-03-02T09:19:44.262Z,100305.91
2023-03-02T09:20:33.320Z,100302.34
2023-03-02T09:21:20.289Z,100306.00
2023-03-02T09:22:07.454Z,100308.22
2023-03-02T09:22:54.333Z,100308.63
2023-03-02T09:23:43.276Z,100306.06
2023-03-02T09:24:30.124Z,100307.06
2023-03-02T09:25:20.805Z,100306.91
2023-03-02T09:26:07.793Z,100304.31
2023-03-02T09:26:54.656Z,100305.72
2023-03-02T09:27:41.988Z,100307.53